Rye, NH (03870)

12:25 PM EDT on March 27, 2015 (GMT -0400)
Greenland, NH | | Change Station
CLOSE
Current Station
Personal Weather Station
Location: Greenland, NH
Elevation: 96 ft
Nearby Weather Stations

Elev 96 ft 43.03 °N, 70.83 °W | Updated 13 minutes ago

Overcast
Overcast
39.3 °F
Feels Like 39 °F
N
0.0
Wind Variable Wind from West
Gusts 3.0 mph

Today
High -- | Low -- °F
--% Chance of Precip.
Yesterday
High -- | Low -- °F
Precip. -- in
6:34 AM 7:03 PM
First Quarter, 54% visible
Pressure 29.71 in
Visibility 10.0 miles
Clouds Scattered Clouds 900 ft
Mostly Cloudy 2400 ft
Overcast 21000 ft
Windchill 39 °F
Dew Point 38 °F
Humidity 95%
Rainfall 0.18 in
Snow Depth Not available.
UV 2 out of 12
Pollen .60 out of 12
Air Quality Not available.
Flu Activity Not available.
SPECI KPSM 271614Z 32003KT 10SM SCT009 BKN024 OVC210 04/02 A2971 RMK AO2A

More Conditions Fewer Conditions

Pressure 29.71 in
Visibility 10.0 miles
Clouds Scattered Clouds 900 ft
Mostly Cloudy 2400 ft
Overcast 21000 ft
Windchill 39 °F
Dew Point 38 °F
Humidity 95%
Rainfall 0.18 in
Snow Depth Not available.
UV 2 out of 12
Pollen .60 out of 12
Air Quality Not available.
Flu Activity Not available.
SPECI KPSM 271614Z 32003KT 10SM SCT009 BKN024 OVC210 04/02 A2971 RMK AO2A

More Conditions Fewer Conditions

10-Day Weather Forecast

Almanac

Astronomy

Mar. 27, 2015 Rise Set
Actual Time
Civil Twilight
Nautical Twilight
Astronomical Twilight
Moon
Length of Visible Light
Length of Day
Tomorrow will be .
, % of the Moon is Illuminated

Today's Extremes

State Highs State Lows

Community

WunderPhotos

Upload Photos

1,808,770 photos uploaded!

WunderBlogs® & News

Nearby

Air Quality

  Air Quality AQ Index Pollutant
Not available.

Snow Depth

Station Depth Elevation

Earthquake Activity

City Distance Mag. Time & Date
Minimum magnitude displayed is 2.5.

Coastal Water Temperatures

Place Temperature

Stations

Nearby Weather Stations

Station Location Temp. Windchill Dew Point Humidity Wind Precip. Elev Updated Type